Time;durP1;ratioP1;P1;durP2;ratioP2;P2;SDS_P1;SDS_P2;PMS_P1;PMS_P2;Temp;Humidity;BMP_temperature;BMP_pressure;BME280_temperature;BME280_humidity;BME280_pressure;Samples;Min_cycle;Max_cycle;Signal;HPM_P1;HPM_P2
2022/04/03 00:01:09;;;;;;;7.63;5.55;;;;;;;-4.77;100.00;159337.84;5072727;28;20037;-61
2022/04/03 00:03:35;;;;;;;10.07;7.22;;;;;;;-4.79;100.00;159333.81;5074302;28;20028;-61
2022/04/03 00:06:00;;;;;;;6.25;5.75;;;;;;;-4.84;100.00;159320.47;5073193;28;20017;-61
2022/04/03 00:08:28;;;;;;;8.75;5.53;;;;;;;-4.86;100.00;159315.13;5074147;28;20414;-61
2022/04/03 00:10:53;;;;;;;13.95;6.75;;;;;;;-4.92;100.00;159299.09;5072753;28;20049;-60
2022/04/03 00:13:18;;;;;;;6.25;5.65;;;;;;;-4.98;100.00;159283.09;5074358;28;20070;-60
2022/04/03 00:15:44;;;;;;;11.75;5.10;;;;;;;-5.01;100.00;159275.06;5074285;28;20024;-60
2022/04/03 00:18:10;;;;;;;6.13;5.53;;;;;;;-4.99;100.00;159280.41;5072499;28;20064;-60
2022/04/03 00:20:40;;;;;;;5.90;5.40;;;;;;;-5.03;100.00;159269.75;5073996;28;20033;-60
2022/04/03 00:23:07;;;;;;;8.45;7.47;;;;;;;-5.06;100.00;159261.72;5072827;28;20072;-60
2022/04/03 00:25:32;;;;;;;5.90;5.40;;;;;;;-5.10;100.00;159253.69;5073051;28;20021;-60
2022/04/03 00:27:58;;;;;;;7.30;5.20;;;;;;;-5.13;100.00;159244.34;5072425;28;20127;-59
2022/04/03 00:30:24;;;;;;;6.53;5.88;;;;;;;-5.17;100.00;159235.00;5073999;28;20033;-59
2022/04/03 00:32:49;;;;;;;6.38;5.78;;;;;;;-5.36;100.00;159184.31;5071563;28;20041;-59
2022/04/03 00:35:16;;;;;;;10.07;6.43;;;;;;;-5.22;100.00;159221.69;5073764;28;20028;-59
2022/04/03 00:37:42;;;;;;;7.03;6.30;;;;;;;-5.24;100.00;159216.31;5072641;28;20036;-59
2022/04/03 00:40:08;;;;;;;5.90;5.32;;;;;;;-5.26;100.00;159212.34;5056470;28;20098;-59
2022/04/03 00:42:35;;;;;;;13.82;6.40;;;;;;;-5.26;100.00;159211.03;5072031;28;20412;-59
2022/04/03 00:45:00;;;;;;;9.98;6.65;;;;;;;-5.36;100.00;159184.31;5073836;28;20020;-59
2022/04/03 00:47:26;;;;;;;10.40;6.15;;;;;;;-5.22;100.00;159221.69;5071595;28;20132;-59
2022/04/03 00:49:51;;;;;;;5.90;5.50;;;;;;;-5.26;100.00;159212.34;5073405;28;20698;-59
2022/04/03 00:52:17;;;;;;;6.03;5.43;;;;;;;-5.45;100.00;159162.94;5072220;28;20033;-59
2022/04/03 00:54:44;;;;;;;14.63;5.07;;;;;;;-5.33;100.00;159193.66;5073511;28;20449;-59
2022/04/03 00:57:10;;;;;;;7.15;6.07;;;;;;;-5.32;100.00;159196.31;5071409;28;20101;-59
2022/04/03 00:59:35;;;;;;;9.48;6.07;;;;;;;-5.35;100.00;159188.28;5073534;28;20066;-60
2022/04/03 01:02:02;;;;;;;6.57;5.97;;;;;;;-5.52;100.00;159144.28;5057923;28;20045;-60
2022/04/03 01:04:28;;;;;;;9.25;6.32;;;;;;;-5.38;100.00;159178.97;5069340;28;20033;-60
2022/04/03 01:06:54;;;;;;;7.57;5.55;;;;;;;-5.40;100.00;159173.66;5072065;28;20043;-59
2022/04/03 01:09:19;;;;;;;5.90;5.40;;;;;;;-5.45;100.00;159162.94;5072817;28;20028;-59
2022/04/03 01:11:45;;;;;;;5.60;5.20;;;;;;;-5.47;100.00;159157.59;5071894;28;20048;-60
2022/04/03 01:14:11;;;;;;;8.90;6.35;;;;;;;-5.50;100.00;159149.63;5073271;28;20020;-60
2022/04/03 01:16:36;;;;;;;6.72;6.03;;;;;;;-5.52;100.00;159142.94;5071396;28;20033;-60
2022/04/03 01:19:03;;;;;;;7.07;5.63;;;;;;;-5.76;100.00;159081.56;5073471;28;20369;-60
2022/04/03 01:21:28;;;;;;;7.88;6.75;;;;;;;-5.60;100.00;159122.91;5071181;28;20523;-60
2022/04/03 01:23:55;;;;;;;12.30;6.38;;;;;;;-5.63;100.00;159116.25;5073023;28;20039;-60
2022/04/03 01:26:22;;;;;;;6.22;5.63;;;;;;;-5.66;100.00;159106.91;5057950;28;20059;-60
2022/04/03 01:28:47;;;;;;;6.55;5.95;;;;;;;-5.68;100.00;159101.56;5053035;28;20060;-60
2022/04/03 01:31:13;;;;;;;5.95;5.45;;;;;;;-5.68;100.00;159101.56;5057167;28;20051;-60
2022/04/03 01:33:38;;;;;;;11.73;6.38;;;;;;;-5.66;100.00;159106.91;5072863;28;20031;-60
2022/04/03 01:36:04;;;;;;;6.40;5.80;;;;;;;-5.71;100.00;159094.88;5071731;28;20130;-60
2022/04/03 01:38:29;;;;;;;6.90;5.78;;;;;;;-5.90;100.00;159046.88;5072368;28;20031;-60
2022/04/03 01:40:55;;;;;;;7.15;6.10;;;;;;;-5.75;100.00;159084.25;5071541;28;20054;-61
2022/04/03 01:43:20;;;;;;;11.80;6.90;;;;;;;-5.76;100.00;159081.56;5072728;28;20028;-61
2022/04/03 01:45:45;;;;;;;6.63;5.97;;;;;;;-5.75;100.00;159085.56;5071810;28;20379;-61
2022/04/03 01:48:11;;;;;;;6.90;6.30;;;;;;;-5.77;100.00;159080.19;5071018;28;20041;-61
2022/04/03 01:50:37;;;;;;;8.05;6.88;;;;;;;-5.79;100.00;159074.91;5072637;28;20020;-61
2022/04/03 01:53:02;;;;;;;7.85;6.35;;;;;;;-5.79;100.00;159074.91;5070648;28;20048;-61
2022/04/03 01:55:28;;;;;;;6.60;6.05;;;;;;;-5.81;100.00;159069.56;5072192;28;20021;-60
2022/04/03 01:57:54;;;;;;;9.27;6.90;;;;;;;-5.97;100.00;159026.84;5070777;28;20043;-60
2022/04/03 02:00:20;;;;;;;6.95;6.20;;;;;;;-5.83;100.00;159064.19;5072045;28;20025;-60
2022/04/03 02:02:46;;;;;;;7.20;6.50;;;;;;;-5.86;100.00;159056.22;5070534;28;20059;-60
2022/04/03 02:05:11;;;;;;;8.23;6.55;;;;;;;-5.89;100.00;159048.19;5072021;28;20036;-60
2022/04/03 02:07:38;;;;;;;7.68;6.93;;;;;;;-6.04;100.00;159008.22;5070129;28;20041;-60
2022/04/03 02:10:08;;;;;;;6.85;6.22;;;;;;;-5.92;100.00;159040.22;5071608;28;20052;-61
2022/04/03 02:12:38;;;;;;;15.40;6.38;;;;;;;-5.97;100.00;159026.84;5070531;28;20527;-61
2022/04/03 02:15:05;;;;;;;10.40;6.50;;;;;;;-6.01;100.00;159017.56;5072013;28;20055;-61
2022/04/03 02:17:31;;;;;;;7.07;5.95;;;;;;;-6.20;100.00;158968.22;5069850;28;20044;-61
2022/04/03 02:19:56;;;;;;;6.72;6.05;;;;;;;-6.12;100.00;158989.56;5072171;28;20016;-60
2022/04/03 02:22:21;;;;;;;7.95;7.13;;;;;;;-6.06;100.00;159005.56;5070117;28;20037;-60
2022/04/03 02:24:47;;;;;;;8.05;6.53;;;;;;;-6.05;100.00;159006.91;5071914;28;20020;-60
2022/04/03 02:27:12;;;;;;;9.18;7.07;;;;;;;-6.04;100.00;159009.59;5069863;28;20044;-60
2022/04/03 02:29:37;;;;;;;7.63;6.80;;;;;;;-6.02;100.00;159013.59;5071558;28;20020;-61
2022/04/03 02:32:03;;;;;;;8.18;7.47;;;;;;;-6.07;100.00;159002.88;5069722;28;20049;-61
2022/04/03 02:34:29;;;;;;;8.15;6.82;;;;;;;-6.04;100.00;159008.22;5071659;28;20031;-61
2022/04/03 02:36:54;;;;;;;12.70;6.90;;;;;;;-6.08;100.00;159000.25;5070350;28;20036;-61
2022/04/03 02:39:20;;;;;;;8.57;7.00;;;;;;;-6.10;100.00;158994.91;5071111;28;20016;-61
2022/04/03 02:41:46;;;;;;;7.78;7.07;;;;;;;-6.13;100.00;158986.88;5070299;28;20039;-61
2022/04/03 02:44:13;;;;;;;7.47;6.68;;;;;;;-6.13;100.00;158985.56;5071385;28;20407;-61
2022/04/03 02:46:39;;;;;;;12.70;7.22;;;;;;;-6.16;100.00;158978.91;5069485;28;20105;-61
2022/04/03 02:49:05;;;;;;;9.10;7.82;;;;;;;-6.18;100.00;158973.56;5071294;28;20472;-61
2022/04/03 02:51:30;;;;;;;8.40;6.63;;;;;;;-6.21;100.00;158965.53;5069588;28;20044;-61
2022/04/03 02:53:56;;;;;;;6.72;6.13;;;;;;;-6.22;100.00;158964.22;5071414;28;20028;-61
2022/04/03 02:56:21;;;;;;;10.23;7.57;;;;;;;-6.24;100.00;158958.88;5069583;28;20029;-61
2022/04/03 02:58:46;;;;;;;9.98;6.65;;;;;;;-6.26;100.00;158952.22;5071202;28;20012;-61
2022/04/03 03:01:12;;;;;;;6.57;6.03;;;;;;;-6.28;100.00;158946.88;5069183;28;20407;-61
2022/04/03 03:03:37;;;;;;;8.35;7.60;;;;;;;-6.28;100.00;158946.88;5071523;28;20025;-61
2022/04/03 03:06:03;;;;;;;7.53;6.80;;;;;;;-6.28;100.00;158946.88;5069560;28;20020;-61
2022/04/03 03:08:28;;;;;;;7.85;7.22;;;;;;;-6.29;100.00;158944.25;5070682;28;20501;-61
2022/04/03 03:10:53;;;;;;;8.77;7.35;;;;;;;-6.31;100.00;158938.91;5069722;28;20044;-61
2022/04/03 03:13:19;;;;;;;9.65;7.35;;;;;;;-6.33;100.00;158933.53;5070662;28;20028;-61
2022/04/03 03:15:44;;;;;;;7.93;7.13;;;;;;;-6.34;100.00;158930.88;5071011;28;20024;-61
2022/04/03 03:18:09;;;;;;;7.25;6.65;;;;;;;-6.45;100.00;158902.88;5069221;28;20032;-63
2022/04/03 03:20:35;;;;;;;8.60;7.45;;;;;;;-6.37;100.00;158924.22;5069968;28;20480;-61
2022/04/03 03:23:00;;;;;;;7.85;7.07;;;;;;;-6.38;100.00;158922.91;5069493;28;20407;-63
2022/04/03 03:25:29;;;;;;;7.75;7.07;;;;;;;-6.41;100.00;158914.88;5070318;28;20472;-62
2022/04/03 03:27:54;;;;;;;;;;;;;;;-6.42;100.00;158912.19;5070166;28;20101;-60
2022/04/03 03:30:21;;;;;;;8.93;8.15;;;;;;;-6.43;100.00;158909.53;5070213;28;19916;-61
2022/04/03 03:32:46;;;;;;;12.68;7.65;;;;;;;-6.43;100.00;158909.53;5069664;28;20041;-63
2022/04/03 03:35:11;;;;;;;6.90;6.28;;;;;;;-6.45;100.00;158904.22;5070351;28;20181;-62
2022/04/03 03:37:38;;;;;;;10.07;8.55;;;;;;;-6.48;100.00;158896.22;5069390;28;20040;-63
2022/04/03 03:40:06;;;;;;;7.68;6.60;;;;;;;-6.61;100.00;158861.56;5070519;28;20031;-62
2022/04/03 03:42:32;;;;;;;9.07;8.18;;;;;;;-6.49;100.00;158893.53;5069456;28;20087;-62
2022/04/03 03:44:58;;;;;;;9.45;8.35;;;;;;;-6.49;100.00;158893.53;5070612;28;20068;-62
2022/04/03 03:47:24;;;;;;;8.60;7.70;;;;;;;-6.48;100.00;158896.22;5069024;28;20040;-63
2022/04/03 03:49:50;;;;;;;11.70;8.38;;;;;;;-6.48;100.00;158896.22;5070536;28;20020;-63
2022/04/03 03:52:15;;;;;;;8.38;7.55;;;;;;;-6.49;100.00;158893.53;5068967;28;20701;-63
2022/04/03 03:54:40;;;;;;;8.00;6.53;;;;;;;-6.51;100.00;158888.19;5070677;28;20024;-61
2022/04/03 03:57:06;;;;;;;12.77;7.07;;;;;;;-6.56;100.00;158874.88;5069113;28;20041;-61
2022/04/03 03:59:31;;;;;;;8.45;7.10;;;;;;;-6.62;100.00;158860.19;5070334;28;20021;-62
2022/04/03 04:01:57;;;;;;;9.20;8.40;;;;;;;-6.66;100.00;158848.25;5069029;28;20481;-62
2022/04/03 04:04:22;;;;;;;7.55;6.88;;;;;;;-6.71;100.00;158837.53;5070518;28;20032;-62
2022/04/03 04:06:48;;;;;;;8.23;7.20;;;;;;;-6.73;100.00;158832.19;5068929;28;20048;-62
2022/04/03 04:09:14;;;;;;;7.93;7.22;;;;;;;-6.74;100.00;158829.53;5054674;28;20055;-63
2022/04/03 04:11:39;;;;;;;7.85;7.00;;;;;;;-6.75;100.00;158825.53;5067398;28;20045;-60
2022/04/03 04:14:04;;;;;;;7.20;6.57;;;;;;;-6.79;100.00;158816.19;5070421;28;20369;-61
2022/04/03 04:16:30;;;;;;;10.13;9.20;;;;;;;-6.80;100.00;158813.53;5068068;28;20101;-60
2022/04/03 04:18:55;;;;;;;11.05;8.90;;;;;;;-6.76;100.00;158824.22;5068889;28;20023;-60
2022/04/03 04:21:20;;;;;;;9.70;8.13;;;;;;;-6.91;100.00;158784.22;5068496;28;20040;-60
2022/04/03 04:23:46;;;;;;;13.30;7.22;;;;;;;-6.77;100.00;158821.56;5065575;28;20021;-57
2022/04/03 04:26:12;;;;;;;9.02;7.57;;;;;;;-6.80;100.00;158813.53;5060165;28;20090;-60
2022/04/03 04:28:38;;;;;;;7.72;7.03;;;;;;;-6.78;100.00;158818.88;5063769;28;20026;-60
2022/04/03 04:31:03;;;;;;;6.97;6.38;;;;;;;-6.81;100.00;158810.84;5064897;28;20029;-60
2022/04/03 04:33:29;;;;;;;15.73;10.18;;;;;;;-6.83;100.00;158805.56;5066586;28;20013;-60
2022/04/03 04:35:55;;;;;;;10.93;6.53;;;;;;;-6.87;100.00;158794.88;5061316;28;20556;-60
2022/04/03 04:38:20;;;;;;;12.02;7.57;;;;;;;-6.94;100.00;158776.22;5064105;28;20013;-60
2022/04/03 04:40:46;;;;;;;8.93;7.72;;;;;;;-6.99;100.00;158764.22;5062739;28;20362;-60
2022/04/03 04:43:11;;;;;;;12.05;7.32;;;;;;;-7.02;100.00;158757.56;5060723;28;20067;-60
2022/04/03 04:45:36;;;;;;;9.57;7.75;;;;;;;-6.96;100.00;158770.91;5066012;28;20013;-60
2022/04/03 04:48:02;;;;;;;8.18;7.28;;;;;;;-7.07;100.00;158742.88;5065961;28;20127;-60
2022/04/03 04:50:29;;;;;;;7.68;6.95;;;;;;;-6.92;100.00;158781.56;5062601;28;20039;-60
2022/04/03 04:52:56;;;;;;;9.75;7.50;;;;;;;-6.94;100.00;158777.56;5061785;28;20114;-60
2022/04/03 04:55:22;;;;;;;10.48;7.95;;;;;;;-6.90;100.00;158786.91;5066761;28;20438;-60
2022/04/03 04:57:56;;;;;;;17.25;7.97;;;;;;;-6.88;100.00;158792.19;5069547;28;20040;-60
2022/04/03 05:00:23;;;;;;;13.40;8.30;;;;;;;-6.87;100.00;158794.88;5066102;28;20059;-60
2022/04/03 05:02:49;;;;;;;9.73;7.18;;;;;;;-6.88;100.00;158792.19;5064392;28;20040;-60
2022/04/03 05:05:17;;;;;;;8.68;7.88;;;;;;;-6.87;100.00;158796.22;5054481;28;20040;-60
2022/04/03 05:07:44;;;;;;;8.43;7.72;;;;;;;-6.82;100.00;158808.25;5051345;28;20041;-60
2022/04/03 05:10:12;;;;;;;15.85;8.50;;;;;;;-6.79;100.00;158816.19;5068984;28;20078;-59
2022/04/03 05:12:38;;;;;;;7.40;6.80;;;;;;;-6.72;100.00;158833.56;5065630;28;20040;-59
2022/04/03 05:15:06;;;;;;;8.63;7.22;;;;;;;-6.63;100.00;158856.19;5066805;28;20055;-60
2022/04/03 05:17:31;;;;;;;7.93;7.25;;;;;;;-6.50;100.00;158890.88;5063171;28;20208;-60
2022/04/03 05:19:56;;;;;;;10.10;6.82;;;;;;;-6.39;100.00;158920.22;5064492;28;20032;-60
2022/04/03 05:22:23;;;;;;;7.28;6.68;;;;;;;-6.30;100.00;158941.56;5065485;28;20052;-60
2022/04/03 05:24:50;;;;;;;11.40;7.75;;;;;;;-6.19;100.00;158970.88;5062337;28;20585;-60
2022/04/03 05:27:15;;;;;;;8.10;6.70;;;;;;;-6.10;100.00;158994.91;5060827;28;20029;-60
2022/04/03 05:29:40;;;;;;;10.95;5.85;;;;;;;-6.02;100.00;159014.88;5066299;28;20475;-60
2022/04/03 05:32:07;;;;;;;7.50;6.80;;;;;;;-5.94;100.00;159034.88;5070627;28;20041;-60
2022/04/03 05:34:32;;;;;;;6.82;6.25;;;;;;;-5.80;100.00;159072.22;5071110;28;20033;-59
2022/04/03 05:36:58;;;;;;;7.22;6.28;;;;;;;-5.67;100.00;159104.22;5070018;28;20036;-59
2022/04/03 05:39:23;;;;;;;7.18;6.18;;;;;;;-5.60;100.00;159122.91;5071837;28;20017;-59
2022/04/03 05:41:53;;;;;;;8.05;6.22;;;;;;;-5.52;100.00;159144.28;5070030;28;20403;-59
2022/04/03 05:44:18;;;;;;;7.53;6.90;;;;;;;-5.49;100.00;159152.28;5070969;28;20176;-60
2022/04/03 05:46:44;;;;;;;9.77;5.80;;;;;;;-5.40;100.00;159174.97;5060677;28;20045;-59
2022/04/03 05:49:09;;;;;;;6.43;5.82;;;;;;;-5.28;100.00;159205.66;5050832;28;20021;-59
2022/04/03 05:51:35;;;;;;;9.73;6.68;;;;;;;-5.11;100.00;159251.06;5055990;28;20043;-59
2022/04/03 05:54:00;;;;;;;12.35;7.85;;;;;;;-4.98;100.00;159283.09;5072095;28;20025;-59
2022/04/03 05:56:27;;;;;;;9.32;7.75;;;;;;;-4.81;100.00;159327.13;5068317;28;20044;-59
2022/04/03 05:58:53;;;;;;;8.60;5.80;;;;;;;-4.64;100.00;159371.19;5071246;28;20031;-59
2022/04/03 06:01:18;;;;;;;7.30;6.55;;;;;;;-4.49;100.00;159411.25;5065174;28;20048;-59
2022/04/03 06:03:44;;;;;;;13.40;6.65;;;;;;;-4.34;100.00;159448.66;5058354;28;20017;-59
2022/04/03 06:06:09;;;;;;;10.48;7.10;;;;;;;-4.18;100.00;159491.41;5058914;28;20045;-59
2022/04/03 06:08:34;;;;;;;7.90;6.90;;;;;;;-4.06;100.00;159520.81;5065191;28;20024;-59
2022/04/03 06:11:00;;;;;;;8.65;6.63;;;;;;;-3.95;100.00;159550.19;5060677;28;20135;-59
2022/04/03 06:13:25;;;;;;;8.15;7.30;;;;;;;-3.87;100.00;159571.56;5061667;28;20501;-59
2022/04/03 06:15:51;;;;;;;8.45;7.65;;;;;;;-3.74;100.00;159603.63;5063052;28;20063;-59
2022/04/03 06:18:18;;;;;;;9.07;6.30;;;;;;;-3.67;100.00;159622.34;5060487;28;20013;-60
2022/04/03 06:20:44;;;;;;;9.93;6.93;;;;;;;-3.55;100.00;159653.09;5068809;28;20058;-59
2022/04/03 06:23:18;;;;;;;10.65;7.35;;;;;;;-3.35;100.00;159705.22;5059075;28;20044;-60
2022/04/03 06:25:44;;;;;;;7.20;6.45;;;;;;;-3.22;100.00;159739.97;5065224;28;20024;-59
2022/04/03 06:28:10;;;;;;;12.88;7.80;;;;;;;-3.12;100.00;159764.03;5057247;28;20108;-59
2022/04/03 06:30:36;;;;;;;8.20;7.00;;;;;;;-2.96;100.00;159805.47;5068689;28;20039;-59
2022/04/03 06:33:01;;;;;;;10.57;8.10;;;;;;;-2.75;100.00;159860.31;5067279;28;20411;-59
2022/04/03 06:35:26;;;;;;;9.80;7.70;;;;;;;-2.57;100.00;159908.44;5065029;28;20032;-60
2022/04/03 06:37:52;;;;;;;14.10;7.82;;;;;;;-2.44;100.00;159940.56;5060343;28;20692;-60
2022/04/03 06:40:17;;;;;;;13.93;8.45;;;;;;;-2.30;100.00;159978.03;5057583;28;20024;-60
2022/04/03 06:42:43;;;;;;;8.77;6.97;;;;;;;-2.09;100.00;160032.91;5051861;28;20037;-56
2022/04/03 06:45:09;;;;;;;7.70;6.90;;;;;;;-1.92;100.00;160077.03;5067278;28;20052;-57
2022/04/03 06:47:35;;;;;;;10.05;9.15;;;;;;;-1.72;100.00;160126.56;5068464;28;20039;-56
2022/04/03 06:50:01;;;;;;;11.95;7.90;;;;;;;-1.59;100.00;160161.34;5069751;28;20029;-57
2022/04/03 06:52:26;;;;;;;11.68;7.57;;;;;;;-1.47;100.00;160193.47;5068758;28;20403;-57
2022/04/03 06:54:52;;;;;;;7.82;6.38;;;;;;;-1.45;100.00;160197.47;5070192;28;20066;-57
2022/04/03 06:57:18;;;;;;;8.05;7.32;;;;;;;-1.25;100.00;160248.38;5066762;28;20171;-57
2022/04/03 06:59:44;;;;;;;10.10;6.95;;;;;;;-1.16;100.00;160272.47;5070778;28;20032;-56
2022/04/03 07:02:09;;;;;;;7.93;7.22;;;;;;;-1.06;100.00;160299.22;5068469;28;20403;-57
2022/04/03 07:04:35;;;;;;;9.63;6.75;;;;;;;-0.87;100.00;160347.47;5070651;28;20391;-57
2022/04/03 07:07:00;;;;;;;8.88;6.88;;;;;;;-0.77;100.00;160372.88;5068555;28;20040;-57
2022/04/03 07:09:26;;;;;;;10.07;6.88;;;;;;;-0.63;100.00;160409.06;5069639;28;20021;-56
2022/04/03 07:11:51;;;;;;;9.43;7.85;;;;;;;-0.51;100.00;160441.22;5068301;28;20412;-57
2022/04/03 07:14:16;;;;;;;8.43;7.72;;;;;;;-0.52;100.00;160439.84;5069578;28;20025;-57
2022/04/03 07:16:42;;;;;;;7.35;6.65;;;;;;;-0.41;100.00;160467.97;5067826;28;20033;-56
2022/04/03 07:19:07;;;;;;;8.07;6.22;;;;;;;-0.30;100.00;160494.78;5069437;28;20099;-57
2022/04/03 07:21:33;;;;;;;7.43;6.80;;;;;;;-0.16;100.00;160532.28;5069119;28;20036;-57
2022/04/03 07:23:59;;;;;;;7.35;6.72;;;;;;;-0.11;100.00;160545.69;5070528;28;20028;-56
2022/04/03 07:26:24;;;;;;;6.63;6.13;;;;;;;0.06;100.00;160588.56;5067799;28;20085;-57
2022/04/03 07:28:50;;;;;;;8.95;6.25;;;;;;;0.26;100.00;160640.84;5052775;28;20025;-56
2022/04/03 07:31:15;;;;;;;11.10;7.07;;;;;;;0.48;100.00;160698.50;5053188;28;20036;-56
2022/04/03 07:33:40;;;;;;;6.25;5.68;;;;;;;0.58;100.00;160723.97;5068617;28;20029;-56
2022/04/03 07:36:06;;;;;;;8.40;5.15;;;;;;;0.65;100.00;160741.38;5068747;28;20091;-56
2022/04/03 07:38:31;;;;;;;6.03;5.22;;;;;;;0.62;100.00;160736.06;5068926;28;20025;-56
2022/04/03 07:40:56;;;;;;;6.00;5.50;;;;;;;0.58;100.00;160725.28;5067315;28;20679;-56
2022/04/03 07:43:23;;;;;;;7.63;5.05;;;;;;;0.55;100.00;160717.28;5066207;28;20391;-56
2022/04/03 07:45:49;;;;;;;8.43;5.97;;;;;;;0.85;100.00;160795.03;5068712;28;20062;-57
2022/04/03 07:48:16;;;;;;;5.70;5.13;;;;;;;1.51;100.00;160966.72;5043611;28;20048;-56
2022/04/03 07:50:42;;;;;;;7.40;4.43;;;;;;;2.65;100.00;161261.94;5049611;28;20029;-56
2022/04/03 07:53:07;;;;;;;5.70;5.10;;;;;;;3.58;100.00;161503.72;5064024;28;20059;-56
2022/04/03 07:55:33;;;;;;;6.72;3.92;;;;;;;4.31;100.00;161694.53;5066085;28;20021;-56
2022/04/03 07:57:58;;;;;;;4.20;3.80;;;;;;;4.90;100.00;161847.81;5065730;28;20052;-56
2022/04/03 08:00:23;;;;;;;5.75;4.60;;;;;;;5.70;100.00;162057.63;5069308;28;20032;-56
2022/04/03 08:02:49;;;;;;;5.80;4.70;;;;;;;6.22;100.00;162192.25;5066679;28;20057;-55
2022/04/03 08:05:14;;;;;;;7.75;3.83;;;;;;;6.39;100.00;162236.72;5068523;28;20032;-55
2022/04/03 08:07:44;;;;;;;6.28;3.67;;;;;;;6.25;100.00;162200.34;5069436;28;20040;-56
2022/04/03 08:10:12;;;;;;;6.40;4.30;;;;;;;7.85;100.00;162617.84;5072536;28;20102;-55
2022/04/03 08:12:40;;;;;;;5.22;4.00;;;;;;;8.40;100.00;162762.06;5071072;28;20631;-55
2022/04/03 08:15:06;;;;;;;4.80;2.78;;;;;;;8.38;100.00;162755.25;5072361;28;20411;-56
2022/04/03 08:17:32;;;;;;;3.58;3.20;;;;;;;9.37;100.00;163014.22;5069374;28;20043;-56
2022/04/03 08:19:57;;;;;;;4.38;2.97;;;;;;;9.40;100.00;163022.31;5073340;28;20028;-55
2022/04/03 08:22:24;;;;;;;2.88;2.53;;;;;;;10.12;100.00;163211.19;5071233;28;20591;-56
2022/04/03 08:24:50;;;;;;;5.45;3.58;;;;;;;8.89;100.00;162890.19;5060404;28;20062;-56
2022/04/03 08:27:16;;;;;;;4.28;2.83;;;;;;;8.65;100.00;162825.44;5071260;28;20128;-56
2022/04/03 08:29:41;;;;;;;4.13;2.50;;;;;;;7.53;100.00;162534.31;5073479;28;20613;-56
2022/04/03 08:32:07;;;;;;;6.35;3.13;;;;;;;8.17;100.00;162701.38;5072209;28;20048;-56
2022/04/03 08:34:33;;;;;;;5.60;3.03;;;;;;;8.07;100.00;162675.78;5073380;28;20016;-56
2022/04/03 08:36:58;;;;;;;12.90;4.22;;;;;;;8.52;100.00;162793.09;5068517;28;20466;-56
2022/04/03 08:39:24;;;;;;;4.80;2.65;;;;;;;8.33;100.00;162741.81;5073381;28;20495;-56
2022/04/03 08:41:49;;;;;;;3.00;2.53;;;;;;;7.57;100.00;162545.06;5071877;28;20036;-56
2022/04/03 08:44:14;;;;;;;3.38;3.00;;;;;;;7.95;100.00;162643.44;5073371;28;20072;-56
2022/04/03 08:46:48;;;;;;;3.50;3.20;;;;;;;7.21;100.00;162449.47;5071961;28;20051;-56
2022/04/03 08:49:13;;;;;;;11.60;3.95;;;;;;;7.74;100.00;162588.19;5073071;28;20065;-56
2022/04/03 08:51:40;;;;;;;3.10;2.65;;;;;;;7.89;100.00;162628.63;5072121;28;20040;-55
2022/04/03 08:54:06;;;;;;;4.18;3.30;;;;;;;6.92;100.00;162375.38;5072958;28;20541;-56
2022/04/03 08:56:32;;;;;;;5.90;3.85;;;;;;;6.80;100.00;162343.06;5061849;28;20052;-56
2022/04/03 08:59:00;;;;;;;3.03;2.78;;;;;;;7.18;100.00;162442.72;5063003;28;20024;-58
2022/04/03 09:01:25;;;;;;;9.27;4.18;;;;;;;8.29;100.00;162732.38;5063398;28;20526;-56
2022/04/03 09:03:51;;;;;;;3.13;2.42;;;;;;;8.09;100.00;162679.81;5072164;28;20096;-56
2022/04/03 09:06:18;;;;;;;3.95;3.22;;;;;;;8.82;100.00;162869.94;5071111;28;20495;-56
2022/04/03 09:08:44;;;;;;;3.08;1.75;;;;;;;9.08;100.00;162938.69;5060719;28;20029;-56
2022/04/03 09:11:09;;;;;;;2.72;2.42;;;;;;;9.13;100.00;162950.84;5053954;28;20051;-56
2022/04/03 09:13:36;;;;;;;3.55;2.17;;;;;;;8.83;100.00;162873.94;5071552;28;20024;-56
2022/04/03 09:16:02;;;;;;;4.18;2.05;;;;;;;8.81;100.00;162868.59;5071093;28;20108;-55
2022/04/03 09:18:44;;;;;;;5.40;1.75;;;;;;;8.68;100.00;162834.88;5071938;28;20096;-56
2022/04/03 09:21:26;;;;;;;3.67;2.78;;;;;;;8.87;100.00;162883.38;5070969;28;20049;-55
2022/04/03 09:24:10;;;;;;;4.47;2.45;;;;;;;9.72;100.00;163105.91;5072486;28;20044;-55
2022/04/03 09:26:39;;;;;;;2.15;1.67;;;;;;;8.83;100.00;162873.94;5070012;28;20047;-57
2022/04/03 09:29:16;;;;;;;3.20;2.45;;;;;;;7.85;100.00;162617.84;5071631;28;20024;-56
2022/04/03 09:31:44;;;;;;;5.05;2.45;;;;;;;8.28;100.00;162729.66;5069988;28;20040;-56
2022/04/03 09:34:20;;;;;;;4.85;2.10;;;;;;;9.00;100.00;162917.13;5069856;28;20028;-55
2022/04/03 09:37:00;;;;;;;3.72;2.10;;;;;;;9.81;100.00;163130.22;5070032;28;20536;-56
2022/04/03 09:39:27;;;;;;;3.90;2.47;;;;;;;9.91;100.00;163155.84;5053361;28;20102;-56
2022/04/03 09:42:00;;;;;;;6.45;2.28;;;;;;;10.35;100.00;163270.56;5069737;28;20508;-55
2022/04/03 09:44:28;;;;;;;5.60;2.60;;;;;;;9.99;100.00;163177.44;5056274;28;20080;-55
2022/04/03 09:47:12;;;;;;;2.90;1.70;;;;;;;10.10;100.00;163204.44;5065824;28;20075;-56
2022/04/03 09:49:38;;;;;;;1.77;1.65;;;;;;;9.92;100.00;163157.22;5069438;28;20698;-55
2022/04/03 09:52:04;;;;;;;4.40;2.65;;;;;;;8.84;100.00;162875.34;5070948;28;20037;-56
2022/04/03 09:54:30;;;;;;;13.18;2.65;;;;;;;9.45;100.00;163034.47;5059443;28;20025;-56
2022/04/03 09:56:56;;;;;;;3.92;2.63;;;;;;;9.77;100.00;163119.44;5058514;28;20110;-56
2022/04/03 09:59:21;;;;;;;12.00;3.75;;;;;;;10.18;100.00;163226.03;5070128;28;20021;-56
2022/04/03 10:01:56;;;;;;;1.98;1.75;;;;;;;9.29;100.00;162992.63;5070127;28;20058;-56
2022/04/03 10:04:23;;;;;;;2.05;1.95;;;;;;;7.49;100.00;162523.50;5070626;28;20013;-56
2022/04/03 10:06:48;;;;;;;26.10;17.20;;;;;;;6.37;100.00;162230.00;5054919;28;20504;-56
2022/04/03 10:09:15;;;;;;;4.80;2.17;;;;;;;5.37;100.00;161971.56;5046379;28;20064;-56
2022/04/03 10:11:42;;;;;;;4.00;2.35;;;;;;;4.86;100.00;161837.06;5044186;28;20037;-56
2022/04/03 10:14:08;;;;;;;4.22;2.90;;;;;;;4.40;100.00;161718.75;5063503;28;20025;-56
2022/04/03 10:16:34;;;;;;;3.20;2.33;;;;;;;4.27;100.00;161683.81;5064984;28;20087;-55
2022/04/03 10:18:59;;;;;;;3.05;2.72;;;;;;;3.95;100.00;161600.47;5069841;28;20487;-56
2022/04/03 10:21:37;;;;;;;3.45;2.25;;;;;;;3.76;100.00;161552.06;5069391;28;20040;-55
2022/04/03 10:24:19;;;;;;;2.28;2.10;;;;;;;3.66;100.00;161525.22;5060083;28;20024;-55
2022/04/03 10:26:59;;;;;;;4.80;2.70;;;;;;;3.87;100.00;161580.28;5040448;28;20124;-56
2022/04/03 10:29:25;;;;;;;3.35;2.30;;;;;;;4.02;100.00;161619.28;5042890;28;20021;-55
2022/04/03 10:31:55;;;;;;;4.53;2.58;;;;;;;4.10;100.00;161639.41;5048106;28;20376;-55
2022/04/03 10:34:21;;;;;;;2.67;2.47;;;;;;;4.37;100.00;161710.66;5049360;28;20499;-56
2022/04/03 10:36:49;;;;;;;4.13;3.78;;;;;;;4.74;100.00;161807.47;5029900;28;20045;-55
2022/04/03 10:39:22;;;;;;;3.88;2.55;;;;;;;5.24;100.00;161936.59;5043752;28;20029;-55
2022/04/03 10:41:47;;;;;;;2.75;2.05;;;;;;;5.60;100.00;162030.75;5043013;28;20488;-56
2022/04/03 10:44:25;;;;;;;6.20;2.90;;;;;;;5.81;100.00;162084.56;5050058;28;20108;-55
2022/04/03 10:47:06;;;;;;;6.22;3.45;;;;;;;5.43;100.00;161985.00;5035486;28;20052;-55
2022/04/03 10:49:37;;;;;;;3.67;2.30;;;;;;;5.27;100.00;161944.66;5049985;28;20504;-55
2022/04/03 10:52:08;;;;;;;7.55;2.67;;;;;;;5.06;100.00;161890.84;5048625;28;20044;-55
2022/04/03 10:54:43;;;;;;;6.03;4.05;;;;;;;4.64;100.00;161780.59;5048514;28;20025;-55
2022/04/03 10:57:47;;;;;;;2.72;2.53;;;;;;;4.73;100.00;161804.75;5037357;28;20579;-55
2022/04/03 11:00:12;;;;;;;2.78;2.50;;;;;;;4.31;100.00;161694.53;5034361;28;20024;-55
2022/04/03 11:02:57;;;;;;;7.45;3.13;;;;;;;4.27;100.00;161683.81;5042604;28;20059;-55
2022/04/03 11:05:25;;;;;;;4.68;3.42;;;;;;;4.44;100.00;161729.47;5052120;28;20033;-55
2022/04/03 11:07:59;;;;;;;7.80;3.17;;;;;;;4.42;100.00;161722.78;5047767;28;20041;-55
2022/04/03 11:10:57;;;;;;;3.30;2.80;;;;;;;4.54;100.00;161753.69;5056287;28;20099;-55
2022/04/03 11:13:22;;;;;;;10.15;2.47;;;;;;;4.79;100.00;161818.25;5055413;28;20051;-55
2022/04/03 11:15:54;;;;;;;3.67;3.30;;;;;;;5.02;100.00;161880.13;5068916;28;20486;-55
2022/04/03 11:18:39;;;;;;;3.22;2.53;;;;;;;5.30;100.00;161952.72;5068499;28;20094;-55